Aérodrome :
LOGIN :

S'inscrire | Disclaimer

   EN    FR    IT 

 










Légende :    VFR   VFR Marginal   IFR   IFR Intensif   IFR Très Intensif
Visi : 
Plafond : 
>= 8 km
>= 3000ft
5 à 8 km
1000 à 3000 ft
1500m à 5 km
500 à 1000 ft
800 à 1500m
200 à 500 ft
< 800m
< 200 ft
Symboles :   Orages  Brouillard  Fortes neiges  Fortes précipitations  Vent > 20 kt
SIGMETs :   Divers  Orages  Givrage  Turbulence  Onde Orograph.  Cendres Volcan.






- Altitude de l'aérodrome : 995 ft
- Code IATA : KTW


EPKT - Katowice

DERNIER METAR :
  • 040830Z 13010KT CAVOK 19/03 Q1000

METARs EXPIRÉS :
  • 040800Z 12009KT 100V180 CAVOK 18/05 Q1000
  • 040730Z 11008KT 070V140 CAVOK 18/04 Q1000
  • 040700Z 12007KT 090V160 CAVOK 17/06 Q1001
  • 040630Z 12007KT CAVOK 16/06 Q1001
  • 040600Z 11005KT 080V140 CAVOK 15/06 Q1001

TAF TAF EPKT
Valide du 04 à 06h jusqu'au 05 à 06h UTC


040530Z 0406/0506 08006KT CAVOK
BECMG 0406/0409 16010KT
PROB40
TEMPO 0413/0422 SHRA SCT040CB



MET'MAP, la Météo Aéronautique d'un coup d'oeil ! - Copyright ORBIFLY Décembre 2007 - Disclaimer

ORBIFLY MET'MAP TEAM :

Programmation & Développement : Alexandra Zaïnal
Sur une idée originale de : Baudouin d'Aumeries
Assistance à la programmation : Marc-Olivier Méhu
Soutien technique & logistique : Manuel Goepfert

Contact : metmap@orbifly.com




SOURCES & CREDITS :

   NOAA